Flight Track Log - Related Links

Times and Time Zones

All times are in EDT time to prevent confusion due to time zone crossing. See the AUB1737 flight status page for this flight to view local times or setup timezone preferences in your user account.

Time Position Orientation Groundspeed Altitude Reporting Facility
EDT Latitude Longitude Course Direction KTS MPH feet Rate Location/Type
Wed 06:29:00 AM 42.2993 18.8398 324° Northwest  Level Estimated
Wed 06:30:00 AM 42.3874 18.7503 323° Northwest  Level Estimated
Wed 06:31:00 AM 42.4754 18.6607 323° Northwest  Level Estimated
Wed 06:32:00 AM 42.5634 18.5707 323° Northwest  Level Estimated
Wed 06:33:00 AM 42.6512 18.4805 323° Northwest  Level Estimated
Wed 06:34:00 AM 42.7390 18.3901 323° Northwest  Level Estimated
Wed 06:35:00 AM 42.8268 18.2994 323° Northwest  Level Estimated
Wed 06:36:00 AM 42.9144 18.2084 323° Northwest  Level Estimated
Wed 06:37:00 AM 43.0020 18.1172 323° Northwest  Level Estimated
Wed 06:38:00 AM 43.0895 18.0257 323° Northwest  Level Estimated
Wed 06:39:00 AM 43.1769 17.9340 323° Northwest  Level Estimated
Wed 06:40:00 AM 43.2643 17.8420 323° Northwest  Level Estimated
Wed 06:41:00 AM 43.3516 17.7497 322° Northwest  Level Estimated
Wed 06:42:00 AM 43.4388 17.6572 322° Northwest  Level Estimated
Wed 06:43:00 AM 43.5260 17.5644 322° Northwest  Level Estimated
Wed 06:44:00 AM 43.6130 17.4713 322° Northwest  Level Estimated
Wed 06:45:00 AM 43.7000 17.3780 322° Northwest  Level Estimated
Wed 06:46:00 AM 43.7869 17.2843 322° Northwest  Level Estimated
Wed 06:47:00 AM 43.8738 17.1905 322° Northwest  Level Estimated
Wed 06:48:00 AM 43.9605 17.0963 322° Northwest  Level Estimated
Wed 06:49:00 AM 44.0472 17.0019 322° Northwest  Level Estimated
Wed 06:50:00 AM 44.1339 16.9072 322° Northwest  Level Estimated
Wed 06:51:00 AM 44.2204 16.8122 322° Northwest  Level Estimated
Wed 06:52:00 AM 44.3068 16.7169 322° Northwest  Level Estimated
Wed 06:53:00 AM 44.3932 16.6214 322° Northwest  Level Estimated
Wed 06:54:00 AM 44.4795 16.5255 322° Northwest  Level Estimated
Wed 06:55:00 AM 44.5657 16.4294 322° Northwest  Level Estimated
Wed 06:56:00 AM 44.6518 16.3330 321° Northwest  Level Estimated
Wed 06:57:00 AM 44.7379 16.2363 321° Northwest  Level Estimated
Wed 06:58:00 AM 44.8238 16.1394 321° Northwest  Level Estimated
Wed 06:59:00 AM 44.9097 16.0421 321° Northwest  Level Estimated
Wed 07:00:00 AM 44.9955 15.9445 321° Northwest  Level Estimated
Wed 07:01:00 AM 45.0812 15.8467 321° Northwest  Level Estimated
Wed 07:02:00 AM 45.1669 15.7486 321° Northwest  Level Estimated
Wed 07:03:00 AM 45.2524 15.6501 321° Northwest  Level Estimated
Wed 07:04:00 AM 45.3379 15.5514 321° Northwest  Level Estimated
Wed 07:05:00 AM 45.4233 15.4524 321° Northwest  Level Estimated
Wed 07:06:00 AM 45.5086 15.3530 321° Northwest  Level Estimated
Wed 07:07:00 AM 45.5938 15.2534 321° Northwest  Level Estimated
Wed 07:08:00 AM 45.6789 15.1535 321° Northwest  Level Estimated
Wed 07:09:00 AM 45.7639 15.0532 321° Northwest  Level Estimated
Wed 07:10:00 AM 45.8489 14.9527 321° Northwest  Level Estimated
Wed 07:11:00 AM 45.9337 14.8518 320° Northwest  Level Estimated
Wed 07:12:00 AM 46.0185 14.7507 320° Northwest  Level Estimated
Wed 07:13:00 AM 46.1032 14.6492 320° Northwest  Level Estimated
Wed 07:14:00 AM 46.1878 14.5474 320° Northwest  Level Estimated
Wed 07:15:00 AM 46.2723 14.4453 320° Northwest  Level Estimated
Wed 07:16:00 AM 46.3567 14.3429 320° Northwest  Level Estimated
Wed 07:17:00 AM 46.4410 14.2402 320° Northwest  Level Estimated
Wed 07:18:00 AM 46.5252 14.1371 320° Northwest  Level Estimated
Wed 07:19:00 AM 46.6094 14.0338 320° Northwest  Level Estimated
Wed 07:20:00 AM 46.6934 13.9301 320° Northwest  Level Estimated
Wed 07:21:00 AM 46.7773 13.8261 320° Northwest  Level Estimated
Wed 07:22:00 AM 46.8612 13.7217 320° Northwest  Level Estimated
Wed 07:23:00 AM 46.9449 13.6171 320° Northwest  Level Estimated
Wed 07:24:00 AM 47.0286 13.5121 319° Northwest  Level Estimated
Wed 07:25:00 AM 47.1122 13.4068 319° Northwest  Level Estimated
Wed 07:26:00 AM 47.1956 13.3011 319° Northwest  Level Estimated
Wed 07:27:00 AM 47.2790 13.1951 319° Northwest  Level Estimated
Wed 07:28:00 AM 47.3623 13.0888 319° Northwest  Level Estimated
Wed 07:29:00 AM 47.4454 12.9822 319° Northwest  Level Estimated
Wed 07:30:00 AM 47.5285 12.8752 319° Northwest  Level Estimated
Wed 07:31:00 AM 47.6115 12.7678 319° Northwest  Level Estimated
Wed 07:32:00 AM 47.6943 12.6602 319° Northwest  Level Estimated
Wed 07:33:00 AM 47.7771 12.5521 319° Northwest  Level Estimated
Wed 07:34:00 AM 47.8598 12.4438 319° Northwest  Level Estimated
Wed 07:35:00 AM 47.9423 12.3351 319° Northwest  Level Estimated
Wed 07:36:00 AM 48.0248 12.2260 319° Northwest  Level Estimated
Wed 07:37:00 AM 48.1072 12.1166 318° Northwest  Level Estimated
Wed 07:38:00 AM 48.1894 12.0069 318° Northwest  Level Estimated
Wed 07:39:00 AM 48.2716 11.8968 318° Northwest  Level Estimated
Wed 07:40:00 AM 48.3536 11.7863 318° Northwest  Level Estimated
Wed 07:41:00 AM 48.3538 11.7861 318° Northwest  Level Estimated
Wed 07:42:00 AM 48.3538 11.7861 318° Northwest  Level Estimated
Wed 07:43:00 AM 48.3538 11.7861 318° Northwest  Level Estimated
Wed 07:44:00 AM 48.3538 11.7861 318° Northwest  Level Estimated
Wed 07:45:00 AM 48.3538 11.7861 318° Northwest  Level Estimated
Wed 07:46:00 AM 48.3538 11.7861 318° Northwest  Level Estimated
Wed 07:47:00 AM 48.3538 11.7861 318° Northwest  Level Estimated
Wed 07:48:00 AM 48.3538 11.7861 318° Northwest  Level Estimated
Wed 07:49:00 AM 48.3538 11.7861 318° Northwest  Level Estimated
Wed 07:50:00 AM 48.3538 11.7861 318° Northwest  Level Estimated
Wed 07:51:00 AM 48.3538 11.7861 318° Northwest  Level Estimated
Wed 07:52:00 AM 48.3538 11.7861 318° Northwest  Level Estimated

Login

Don't have an account? Register now (free) for customized features, flight alerts, and more!